EGEC/CAL METAR and TAF weather

Enter ICAO airport designator
Station Type Date Time Source
EGEC METAR 2020/01/21 17:20 UTC NOAA

EGEC 211720Z 26013KT 6000 OVC003 09/09 Q1038


Station Type Date Time Source
EGEC Decoded METAR 2020/01/21 17:20 UTC NOAA

Campbeltown, United Kingdom (EGEC) 55-26-14N 005-41-11W
Jan 21, 2020 - 12:20 PM EST / 2020.01.21 1720 UTC
Wind: from the W (260 degrees) at 15 MPH (13 KT):0
Visibility: 3 mile(s):0
Sky conditions: overcast
Temperature: 48 F (9 C)
Dew Point: 48 F (9 C)
Relative Humidity: 100%
Pressure (altimeter): 30.65 in. Hg (1038 hPa)
ob: EGEC 211720Z 26013KT 6000 OVC003 09/09 Q1038
cycle: 17

Station Type Date Time Source
EGEC TAF UTC NOAA

Error!

Example: see airport list